Terminal Aerodrome Forecast
Issued by NWS

Home | Current Version | Previous Version | Text Only | Print | Product List | Glossary On
Versions: 1 2 3 4 5 6 7 8 9 10 11 12
000
FTUS45 KGJT 270524
TAFMTJ
TAF
KMTJ 270524Z 2706/2806 13010KT P6SM SKC
     FM271700 30005KT P6SM SKC
     FM280200 10005KT P6SM SCT250=

USA.gov is the U.S. government's official web portal to all federal, state and local government web resources and services.